sensor_id;sensor_type;location;lat;lon;timestamp;P1;durP1;ratioP1;P2;durP2;ratioP2
61038;SDS011;46919;45.816;3.104;2022-11-12T00:00:21;8.00;;;5.47;;
61038;SDS011;46919;45.816;3.104;2022-11-12T00:02:46;6.25;;;5.38;;
61038;SDS011;46919;45.816;3.104;2022-11-12T00:05:11;6.88;;;5.22;;
61038;SDS011;46919;45.816;3.104;2022-11-12T00:07:37;9.35;;;5.20;;
61038;SDS011;46919;45.816;3.104;2022-11-12T00:10:03;10.43;;;6.35;;
61038;SDS011;46919;45.816;3.104;2022-11-12T00:12:29;8.23;;;5.40;;
61038;SDS011;46919;45.816;3.104;2022-11-12T00:14:54;6.65;;;5.22;;
61038;SDS011;46919;45.816;3.104;2022-11-12T00:17:20;8.25;;;5.45;;
61038;SDS011;46919;45.816;3.104;2022-11-12T00:19:45;9.93;;;4.95;;
61038;SDS011;46919;45.816;3.104;2022-11-12T00:22:10;6.55;;;4.93;;
61038;SDS011;46919;45.816;3.104;2022-11-12T00:24:36;6.90;;;4.72;;
61038;SDS011;46919;45.816;3.104;2022-11-12T00:27:01;7.05;;;5.03;;
61038;SDS011;46919;45.816;3.104;2022-11-12T00:29:26;8.10;;;5.07;;
61038;SDS011;46919;45.816;3.104;2022-11-12T00:31:52;5.13;;;4.53;;
61038;SDS011;46919;45.816;3.104;2022-11-12T00:34:17;7.75;;;4.53;;
61038;SDS011;46919;45.816;3.104;2022-11-12T00:36:43;8.18;;;4.85;;
61038;SDS011;46919;45.816;3.104;2022-11-12T00:39:08;6.82;;;4.65;;
61038;SDS011;46919;45.816;3.104;2022-11-12T00:41:34;10.32;;;5.00;;
61038;SDS011;46919;45.816;3.104;2022-11-12T00:43:59;8.25;;;4.82;;
61038;SDS011;46919;45.816;3.104;2022-11-12T00:46:25;12.75;;;4.97;;
61038;SDS011;46919;45.816;3.104;2022-11-12T00:48:50;8.68;;;4.80;;
61038;SDS011;46919;45.816;3.104;2022-11-12T00:51:15;11.40;;;5.57;;
61038;SDS011;46919;45.816;3.104;2022-11-12T00:53:41;10.63;;;5.05;;
61038;SDS011;46919;45.816;3.104;2022-11-12T00:56:06;6.13;;;4.30;;
61038;SDS011;46919;45.816;3.104;2022-11-12T00:58:33;8.25;;;4.30;;
61038;SDS011;46919;45.816;3.104;2022-11-12T01:01:09;6.82;;;4.43;;
61038;SDS011;46919;45.816;3.104;2022-11-12T01:03:37;8.65;;;4.38;;
61038;SDS011;46919;45.816;3.104;2022-11-12T01:06:04;7.10;;;4.35;;
61038;SDS011;46919;45.816;3.104;2022-11-12T01:08:32;7.38;;;4.68;;
61038;SDS011;46919;45.816;3.104;2022-11-12T01:11:09;7.40;;;4.30;;
61038;SDS011;46919;45.816;3.104;2022-11-12T01:13:37;5.70;;;4.18;;
61038;SDS011;46919;45.816;3.104;2022-11-12T01:16:17;8.00;;;4.72;;
61038;SDS011;46919;45.816;3.104;2022-11-12T01:18:44;10.68;;;5.03;;
61038;SDS011;46919;45.816;3.104;2022-11-12T01:21:10;11.52;;;5.50;;
61038;SDS011;46919;45.816;3.104;2022-11-12T01:23:37;9.63;;;4.97;;
61038;SDS011;46919;45.816;3.104;2022-11-12T01:26:05;7.88;;;5.03;;
61038;SDS011;46919;45.816;3.104;2022-11-12T01:28:31;7.22;;;5.20;;
61038;SDS011;46919;45.816;3.104;2022-11-12T01:30:56;8.90;;;5.47;;
61038;SDS011;46919;45.816;3.104;2022-11-12T01:33:21;6.95;;;4.88;;
61038;SDS011;46919;45.816;3.104;2022-11-12T01:35:47;8.25;;;5.00;;
61038;SDS011;46919;45.816;3.104;2022-11-12T01:38:12;8.75;;;5.00;;
61038;SDS011;46919;45.816;3.104;2022-11-12T01:40:38;7.82;;;4.35;;
61038;SDS011;46919;45.816;3.104;2022-11-12T01:43:04;6.13;;;4.20;;
61038;SDS011;46919;45.816;3.104;2022-11-12T01:45:36;6.68;;;4.47;;
61038;SDS011;46919;45.816;3.104;2022-11-12T01:48:09;7.55;;;4.03;;
61038;SDS011;46919;45.816;3.104;2022-11-12T01:50:49;7.50;;;4.47;;
61038;SDS011;46919;45.816;3.104;2022-11-12T01:53:15;5.45;;;3.72;;
61038;SDS011;46919;45.816;3.104;2022-11-12T01:55:41;7.32;;;4.03;;
61038;SDS011;46919;45.816;3.104;2022-11-12T01:58:10;6.72;;;3.90;;
61038;SDS011;46919;45.816;3.104;2022-11-12T02:00:37;4.22;;;3.50;;
61038;SDS011;46919;45.816;3.104;2022-11-12T02:03:06;7.75;;;4.03;;
61038;SDS011;46919;45.816;3.104;2022-11-12T02:05:36;8.75;;;4.13;;
61038;SDS011;46919;45.816;3.104;2022-11-12T02:08:03;8.20;;;3.80;;
61038;SDS011;46919;45.816;3.104;2022-11-12T02:10:31;6.15;;;4.10;;
61038;SDS011;46919;45.816;3.104;2022-11-12T02:12:58;4.43;;;3.28;;
61038;SDS011;46919;45.816;3.104;2022-11-12T02:15:42;8.35;;;4.28;;
61038;SDS011;46919;45.816;3.104;2022-11-12T02:18:07;6.70;;;3.83;;
61038;SDS011;46919;45.816;3.104;2022-11-12T02:20:34;9.70;;;3.78;;
61038;SDS011;46919;45.816;3.104;2022-11-12T02:23:00;6.18;;;3.40;;
61038;SDS011;46919;45.816;3.104;2022-11-12T02:25:26;8.02;;;3.40;;
61038;SDS011;46919;45.816;3.104;2022-11-12T02:27:52;7.45;;;3.53;;
61038;SDS011;46919;45.816;3.104;2022-11-12T02:30:30;5.22;;;3.60;;
61038;SDS011;46919;45.816;3.104;2022-11-12T02:32:59;5.20;;;3.67;;
61038;SDS011;46919;45.816;3.104;2022-11-12T02:35:25;7.47;;;3.65;;
61038;SDS011;46919;45.816;3.104;2022-11-12T02:37:50;6.43;;;3.47;;
61038;SDS011;46919;45.816;3.104;2022-11-12T02:40:16;8.57;;;4.20;;
61038;SDS011;46919;45.816;3.104;2022-11-12T02:42:41;5.15;;;3.50;;
61038;SDS011;46919;45.816;3.104;2022-11-12T02:45:07;10.30;;;3.33;;
61038;SDS011;46919;45.816;3.104;2022-11-12T02:47:33;5.70;;;3.47;;
61038;SDS011;46919;45.816;3.104;2022-11-12T02:49:58;4.30;;;3.40;;
61038;SDS011;46919;45.816;3.104;2022-11-12T02:52:24;6.30;;;3.20;;
61038;SDS011;46919;45.816;3.104;2022-11-12T02:54:49;5.82;;;3.70;;
61038;SDS011;46919;45.816;3.104;2022-11-12T02:57:14;5.38;;;3.60;;
61038;SDS011;46919;45.816;3.104;2022-11-12T02:59:40;4.43;;;3.40;;
61038;SDS011;46919;45.816;3.104;2022-11-12T03:02:05;5.28;;;3.17;;
61038;SDS011;46919;45.816;3.104;2022-11-12T03:04:30;5.95;;;3.55;;
61038;SDS011;46919;45.816;3.104;2022-11-12T03:06:56;4.55;;;3.25;;
61038;SDS011;46919;45.816;3.104;2022-11-12T03:09:21;6.18;;;3.00;;
61038;SDS011;46919;45.816;3.104;2022-11-12T03:11:46;6.50;;;3.40;;
61038;SDS011;46919;45.816;3.104;2022-11-12T03:14:12;4.25;;;3.20;;
61038;SDS011;46919;45.816;3.104;2022-11-12T03:16:37;6.95;;;3.30;;
61038;SDS011;46919;45.816;3.104;2022-11-12T03:19:02;5.72;;;3.40;;
61038;SDS011;46919;45.816;3.104;2022-11-12T03:21:28;6.57;;;3.33;;
61038;SDS011;46919;45.816;3.104;2022-11-12T03:23:53;4.68;;;3.08;;
61038;SDS011;46919;45.816;3.104;2022-11-12T03:26:18;6.68;;;3.40;;
61038;SDS011;46919;45.816;3.104;2022-11-12T03:28:44;6.53;;;3.65;;
61038;SDS011;46919;45.816;3.104;2022-11-12T03:31:09;8.35;;;3.53;;
61038;SDS011;46919;45.816;3.104;2022-11-12T03:33:36;6.55;;;3.50;;
61038;SDS011;46919;45.816;3.104;2022-11-12T03:36:02;5.22;;;3.42;;
61038;SDS011;46919;45.816;3.104;2022-11-12T03:38:28;5.45;;;3.47;;
61038;SDS011;46919;45.816;3.104;2022-11-12T03:40:53;6.68;;;3.70;;
61038;SDS011;46919;45.816;3.104;2022-11-12T03:43:19;6.32;;;3.80;;
61038;SDS011;46919;45.816;3.104;2022-11-12T03:45:44;3.78;;;3.08;;
61038;SDS011;46919;45.816;3.104;2022-11-12T03:48:10;8.45;;;3.53;;
61038;SDS011;46919;45.816;3.104;2022-11-12T03:50:35;5.60;;;3.65;;
61038;SDS011;46919;45.816;3.104;2022-11-12T03:53:00;6.85;;;3.70;;
61038;SDS011;46919;45.816;3.104;2022-11-12T03:55:27;5.28;;;3.50;;
61038;SDS011;46919;45.816;3.104;2022-11-12T03:57:53;5.72;;;3.47;;
61038;SDS011;46919;45.816;3.104;2022-11-12T04:00:20;5.05;;;3.30;;
61038;SDS011;46919;45.816;3.104;2022-11-12T04:02:46;5.20;;;2.95;;
61038;SDS011;46919;45.816;3.104;2022-11-12T04:05:13;6.72;;;3.00;;
61038;SDS011;46919;45.816;3.104;2022-11-12T04:08:00;5.68;;;3.15;;
61038;SDS011;46919;45.816;3.104;2022-11-12T04:10:58;4.85;;;3.03;;
61038;SDS011;46919;45.816;3.104;2022-11-12T04:13:24;5.32;;;3.47;;
61038;SDS011;46919;45.816;3.104;2022-11-12T04:18:42;4.90;;;3.22;;
61038;SDS011;46919;45.816;3.104;2022-11-12T04:21:35;7.70;;;3.20;;
61038;SDS011;46919;45.816;3.104;2022-11-12T04:24:19;4.72;;;3.10;;
61038;SDS011;46919;45.816;3.104;2022-11-12T04:27:17;6.40;;;3.33;;
61038;SDS011;46919;45.816;3.104;2022-11-12T04:29:43;5.93;;;2.80;;
61038;SDS011;46919;45.816;3.104;2022-11-12T04:32:29;6.90;;;3.28;;
61038;SDS011;46919;45.816;3.104;2022-11-12T04:34:55;6.95;;;2.95;;
61038;SDS011;46919;45.816;3.104;2022-11-12T04:37:22;4.75;;;2.92;;
61038;SDS011;46919;45.816;3.104;2022-11-12T04:39:49;4.63;;;2.88;;
61038;SDS011;46919;45.816;3.104;2022-11-12T04:42:15;4.80;;;2.50;;
61038;SDS011;46919;45.816;3.104;2022-11-12T04:44:59;3.83;;;2.72;;
61038;SDS011;46919;45.816;3.104;2022-11-12T04:47:46;3.65;;;2.80;;
61038;SDS011;46919;45.816;3.104;2022-11-12T04:50:15;6.78;;;3.22;;
61038;SDS011;46919;45.816;3.104;2022-11-12T04:52:41;5.38;;;2.83;;
61038;SDS011;46919;45.816;3.104;2022-11-12T04:55:07;4.22;;;2.78;;
61038;SDS011;46919;45.816;3.104;2022-11-12T04:57:33;6.43;;;3.08;;
61038;SDS011;46919;45.816;3.104;2022-11-12T04:59:59;6.70;;;2.58;;
61038;SDS011;46919;45.816;3.104;2022-11-12T05:02:25;4.82;;;2.88;;
61038;SDS011;46919;45.816;3.104;2022-11-12T05:04:50;5.88;;;2.50;;
61038;SDS011;46919;45.816;3.104;2022-11-12T05:07:15;4.20;;;2.70;;
61038;SDS011;46919;45.816;3.104;2022-11-12T05:09:41;3.60;;;2.58;;
61038;SDS011;46919;45.816;3.104;2022-11-12T05:12:08;7.50;;;2.70;;
61038;SDS011;46919;45.816;3.104;2022-11-12T05:14:33;5.13;;;2.85;;
61038;SDS011;46919;45.816;3.104;2022-11-12T05:16:59;4.88;;;2.78;;
61038;SDS011;46919;45.816;3.104;2022-11-12T05:19:24;8.07;;;2.53;;
61038;SDS011;46919;45.816;3.104;2022-11-12T05:21:49;3.35;;;2.13;;
61038;SDS011;46919;45.816;3.104;2022-11-12T05:24:40;4.50;;;2.30;;
61038;SDS011;46919;45.816;3.104;2022-11-12T05:27:11;6.00;;;2.25;;
61038;SDS011;46919;45.816;3.104;2022-11-12T05:29:43;6.47;;;2.33;;
61038;SDS011;46919;45.816;3.104;2022-11-12T05:32:11;5.68;;;2.40;;
61038;SDS011;46919;45.816;3.104;2022-11-12T05:34:38;4.90;;;2.17;;
61038;SDS011;46919;45.816;3.104;2022-11-12T05:37:05;3.05;;;2.03;;
61038;SDS011;46919;45.816;3.104;2022-11-12T05:39:31;5.40;;;1.98;;
61038;SDS011;46919;45.816;3.104;2022-11-12T05:41:57;3.42;;;2.00;;
61038;SDS011;46919;45.816;3.104;2022-11-12T05:44:22;4.50;;;2.10;;
61038;SDS011;46919;45.816;3.104;2022-11-12T05:46:47;2.92;;;1.90;;
61038;SDS011;46919;45.816;3.104;2022-11-12T05:49:14;6.53;;;2.28;;
61038;SDS011;46919;45.816;3.104;2022-11-12T05:51:40;6.55;;;2.28;;
61038;SDS011;46919;45.816;3.104;2022-11-12T05:54:05;3.80;;;2.33;;
61038;SDS011;46919;45.816;3.104;2022-11-12T05:56:31;3.92;;;1.88;;
61038;SDS011;46919;45.816;3.104;2022-11-12T05:58:56;4.45;;;2.10;;
61038;SDS011;46919;45.816;3.104;2022-11-12T06:01:22;5.05;;;1.95;;
61038;SDS011;46919;45.816;3.104;2022-11-12T06:03:48;2.75;;;2.20;;
61038;SDS011;46919;45.816;3.104;2022-11-12T06:06:13;4.28;;;2.13;;
61038;SDS011;46919;45.816;3.104;2022-11-12T06:08:39;4.40;;;2.55;;
61038;SDS011;46919;45.816;3.104;2022-11-12T06:11:04;3.38;;;2.28;;
61038;SDS011;46919;45.816;3.104;2022-11-12T06:13:30;3.05;;;2.00;;
61038;SDS011;46919;45.816;3.104;2022-11-12T06:15:55;5.18;;;2.17;;
61038;SDS011;46919;45.816;3.104;2022-11-12T06:18:20;3.88;;;2.40;;
61038;SDS011;46919;45.816;3.104;2022-11-12T06:20:47;6.80;;;2.15;;
61038;SDS011;46919;45.816;3.104;2022-11-12T06:23:31;2.72;;;2.03;;
61038;SDS011;46919;45.816;3.104;2022-11-12T06:25:57;7.05;;;4.20;;
61038;SDS011;46919;45.816;3.104;2022-11-12T06:28:22;8.00;;;3.90;;
61038;SDS011;46919;45.816;3.104;2022-11-12T06:30:48;6.50;;;3.47;;
61038;SDS011;46919;45.816;3.104;2022-11-12T06:33:13;4.35;;;2.92;;
61038;SDS011;46919;45.816;3.104;2022-11-12T06:35:38;8.65;;;4.10;;
61038;SDS011;46919;45.816;3.104;2022-11-12T06:38:04;8.07;;;4.63;;
61038;SDS011;46919;45.816;3.104;2022-11-12T06:40:29;10.45;;;4.93;;
61038;SDS011;46919;45.816;3.104;2022-11-12T06:42:56;8.57;;;4.90;;
61038;SDS011;46919;45.816;3.104;2022-11-12T06:45:22;8.18;;;4.60;;
61038;SDS011;46919;45.816;3.104;2022-11-12T06:47:48;5.95;;;4.32;;
61038;SDS011;46919;45.816;3.104;2022-11-12T06:50:13;8.68;;;4.68;;
61038;SDS011;46919;45.816;3.104;2022-11-12T06:52:39;5.82;;;4.10;;
61038;SDS011;46919;45.816;3.104;2022-11-12T06:55:04;6.70;;;4.45;;
61038;SDS011;46919;45.816;3.104;2022-11-12T06:57:30;7.05;;;4.05;;
61038;SDS011;46919;45.816;3.104;2022-11-12T06:59:55;7.35;;;3.95;;
61038;SDS011;46919;45.816;3.104;2022-11-12T07:02:21;5.95;;;3.60;;
61038;SDS011;46919;45.816;3.104;2022-11-12T07:04:46;5.85;;;4.15;;
61038;SDS011;46919;45.816;3.104;2022-11-12T07:07:11;11.93;;;4.07;;
61038;SDS011;46919;45.816;3.104;2022-11-12T07:09:37;22.35;;;13.40;;
61038;SDS011;46919;45.816;3.104;2022-11-12T07:12:02;7.57;;;4.68;;
61038;SDS011;46919;45.816;3.104;2022-11-12T07:14:28;8.20;;;4.18;;
61038;SDS011;46919;45.816;3.104;2022-11-12T07:16:53;6.68;;;4.10;;
61038;SDS011;46919;45.816;3.104;2022-11-12T07:19:18;5.78;;;4.05;;
61038;SDS011;46919;45.816;3.104;2022-11-12T07:21:44;10.13;;;4.70;;
61038;SDS011;46919;45.816;3.104;2022-11-12T07:24:09;8.50;;;6.07;;
61038;SDS011;46919;45.816;3.104;2022-11-12T07:26:35;13.65;;;7.95;;
61038;SDS011;46919;45.816;3.104;2022-11-12T07:29:00;12.50;;;8.98;;
61038;SDS011;46919;45.816;3.104;2022-11-12T07:31:25;10.98;;;7.63;;
61038;SDS011;46919;45.816;3.104;2022-11-12T07:33:51;8.35;;;5.68;;
61038;SDS011;46919;45.816;3.104;2022-11-12T07:36:17;12.13;;;8.32;;
61038;SDS011;46919;45.816;3.104;2022-11-12T07:38:44;13.23;;;8.35;;
61038;SDS011;46919;45.816;3.104;2022-11-12T07:41:11;16.00;;;9.35;;
61038;SDS011;46919;45.816;3.104;2022-11-12T07:43:42;14.32;;;10.98;;
61038;SDS011;46919;45.816;3.104;2022-11-12T07:46:10;16.08;;;11.70;;
61038;SDS011;46919;45.816;3.104;2022-11-12T07:48:38;16.50;;;11.43;;
61038;SDS011;46919;45.816;3.104;2022-11-12T07:51:05;15.18;;;11.95;;
61038;SDS011;46919;45.816;3.104;2022-11-12T07:53:35;18.83;;;16.13;;
61038;SDS011;46919;45.816;3.104;2022-11-12T07:56:01;14.95;;;13.23;;
61038;SDS011;46919;45.816;3.104;2022-11-12T07:58:29;14.60;;;13.05;;
61038;SDS011;46919;45.816;3.104;2022-11-12T08:00:56;14.88;;;12.70;;
61038;SDS011;46919;45.816;3.104;2022-11-12T08:03:22;15.10;;;12.90;;
61038;SDS011;46919;45.816;3.104;2022-11-12T08:05:47;15.10;;;12.20;;
61038;SDS011;46919;45.816;3.104;2022-11-12T08:08:13;11.98;;;9.13;;
61038;SDS011;46919;45.816;3.104;2022-11-12T08:10:38;13.93;;;6.95;;
61038;SDS011;46919;45.816;3.104;2022-11-12T08:13:04;16.27;;;8.57;;
61038;SDS011;46919;45.816;3.104;2022-11-12T08:15:30;15.10;;;9.35;;
61038;SDS011;46919;45.816;3.104;2022-11-12T08:17:55;21.35;;;14.30;;
61038;SDS011;46919;45.816;3.104;2022-11-12T08:20:21;17.08;;;12.10;;
61038;SDS011;46919;45.816;3.104;2022-11-12T08:22:47;16.63;;;10.90;;
61038;SDS011;46919;45.816;3.104;2022-11-12T08:25:12;17.38;;;11.88;;
61038;SDS011;46919;45.816;3.104;2022-11-12T08:27:38;15.75;;;12.57;;
61038;SDS011;46919;45.816;3.104;2022-11-12T08:30:03;12.60;;;10.00;;
61038;SDS011;46919;45.816;3.104;2022-11-12T08:32:29;13.43;;;10.75;;
61038;SDS011;46919;45.816;3.104;2022-11-12T08:34:55;16.30;;;12.32;;
61038;SDS011;46919;45.816;3.104;2022-11-12T08:37:20;23.85;;;16.92;;
61038;SDS011;46919;45.816;3.104;2022-11-12T08:39:46;21.27;;;14.95;;
61038;SDS011;46919;45.816;3.104;2022-11-12T08:42:11;19.13;;;13.32;;
61038;SDS011;46919;45.816;3.104;2022-11-12T08:44:36;17.27;;;13.05;;
61038;SDS011;46919;45.816;3.104;2022-11-12T08:47:02;14.73;;;11.07;;
61038;SDS011;46919;45.816;3.104;2022-11-12T08:49:27;14.98;;;8.77;;
61038;SDS011;46919;45.816;3.104;2022-11-12T08:51:53;11.65;;;8.90;;
61038;SDS011;46919;45.816;3.104;2022-11-12T08:54:19;38.65;;;28.73;;
61038;SDS011;46919;45.816;3.104;2022-11-12T08:56:45;12.45;;;9.38;;
61038;SDS011;46919;45.816;3.104;2022-11-12T08:59:11;17.30;;;12.30;;
61038;SDS011;46919;45.816;3.104;2022-11-12T09:01:36;15.27;;;9.35;;
61038;SDS011;46919;45.816;3.104;2022-11-12T09:04:02;12.45;;;8.93;;
61038;SDS011;46919;45.816;3.104;2022-11-12T09:06:27;19.15;;;12.20;;
61038;SDS011;46919;45.816;3.104;2022-11-12T09:08:52;19.05;;;8.38;;
61038;SDS011;46919;45.816;3.104;2022-11-12T09:11:18;14.13;;;8.07;;
61038;SDS011;46919;45.816;3.104;2022-11-12T09:13:43;11.23;;;7.65;;
61038;SDS011;46919;45.816;3.104;2022-11-12T09:16:09;8.70;;;6.97;;
61038;SDS011;46919;45.816;3.104;2022-11-12T09:18:34;8.93;;;6.53;;
61038;SDS011;46919;45.816;3.104;2022-11-12T09:21:01;9.25;;;6.88;;
61038;SDS011;46919;45.816;3.104;2022-11-12T09:23:27;11.18;;;7.28;;
61038;SDS011;46919;45.816;3.104;2022-11-12T09:25:53;7.70;;;6.22;;
61038;SDS011;46919;45.816;3.104;2022-11-12T09:28:20;9.10;;;5.13;;
61038;SDS011;46919;45.816;3.104;2022-11-12T09:30:46;6.35;;;4.90;;
61038;SDS011;46919;45.816;3.104;2022-11-12T09:33:14;6.68;;;4.57;;
61038;SDS011;46919;45.816;3.104;2022-11-12T09:35:40;6.63;;;4.28;;
61038;SDS011;46919;45.816;3.104;2022-11-12T09:38:05;8.52;;;4.90;;
61038;SDS011;46919;45.816;3.104;2022-11-12T09:40:54;8.90;;;3.97;;
61038;SDS011;46919;45.816;3.104;2022-11-12T09:49:32;9.00;;;4.63;;
61038;SDS011;46919;45.816;3.104;2022-11-12T09:52:03;7.45;;;3.97;;
61038;SDS011;46919;45.816;3.104;2022-11-12T09:54:36;7.97;;;4.70;;
61038;SDS011;46919;45.816;3.104;2022-11-12T09:57:01;7.72;;;4.40;;
61038;SDS011;46919;45.816;3.104;2022-11-12T09:59:28;9.30;;;4.85;;
61038;SDS011;46919;45.816;3.104;2022-11-12T10:02:01;10.25;;;4.75;;
61038;SDS011;46919;45.816;3.104;2022-11-12T10:10:15;8.93;;;4.90;;
61038;SDS011;46919;45.816;3.104;2022-11-12T10:24:18;7.20;;;4.30;;
61038;SDS011;46919;45.816;3.104;2022-11-12T10:26:45;9.15;;;3.75;;
61038;SDS011;46919;45.816;3.104;2022-11-12T10:29:16;5.30;;;3.53;;
61038;SDS011;46919;45.816;3.104;2022-11-12T10:32:02;9.38;;;3.53;;
61038;SDS011;46919;45.816;3.104;2022-11-12T10:34:27;6.70;;;3.40;;
61038;SDS011;46919;45.816;3.104;2022-11-12T10:39:41;5.95;;;3.42;;
61038;SDS011;46919;45.816;3.104;2022-11-12T10:42:11;5.68;;;3.30;;
61038;SDS011;46919;45.816;3.104;2022-11-12T10:44:39;10.32;;;3.33;;
61038;SDS011;46919;45.816;3.104;2022-11-12T10:49:43;5.13;;;2.70;;
61038;SDS011;46919;45.816;3.104;2022-11-12T10:52:37;4.72;;;2.90;;
61038;SDS011;46919;45.816;3.104;2022-11-12T10:55:17;9.27;;;2.78;;
61038;SDS011;46919;45.816;3.104;2022-11-12T10:57:45;5.32;;;2.85;;
61038;SDS011;46919;45.816;3.104;2022-11-12T11:02:36;4.13;;;2.55;;
61038;SDS011;46919;45.816;3.104;2022-11-12T11:08:12;4.95;;;2.38;;
61038;SDS011;46919;45.816;3.104;2022-11-12T11:10:37;5.35;;;2.30;;
61038;SDS011;46919;45.816;3.104;2022-11-12T11:13:15;7.65;;;2.50;;
61038;SDS011;46919;45.816;3.104;2022-11-12T11:15:56;4.78;;;2.40;;
61038;SDS011;46919;45.816;3.104;2022-11-12T11:18:29;7.78;;;2.47;;
61038;SDS011;46919;45.816;3.104;2022-11-12T11:29:18;7.07;;;2.65;;
61038;SDS011;46919;45.816;3.104;2022-11-12T11:32:07;8.90;;;2.20;;
61038;SDS011;46919;45.816;3.104;2022-11-12T11:40:13;6.10;;;2.20;;
61038;SDS011;46919;45.816;3.104;2022-11-12T11:42:51;3.63;;;2.00;;
61038;SDS011;46919;45.816;3.104;2022-11-12T11:45:30;5.97;;;2.50;;
61038;SDS011;46919;45.816;3.104;2022-11-12T11:48:46;5.25;;;1.80;;
61038;SDS011;46919;45.816;3.104;2022-11-12T11:53:28;4.78;;;2.20;;
61038;SDS011;46919;45.816;3.104;2022-11-12T11:56:04;5.53;;;2.20;;
61038;SDS011;46919;45.816;3.104;2022-11-12T12:06:26;6.93;;;2.08;;
61038;SDS011;46919;45.816;3.104;2022-11-12T12:09:01;5.72;;;2.30;;
61038;SDS011;46919;45.816;3.104;2022-11-12T12:17:31;6.38;;;2.03;;
61038;SDS011;46919;45.816;3.104;2022-11-12T12:22:48;9.32;;;2.80;;
61038;SDS011;46919;45.816;3.104;2022-11-12T12:25:26;3.38;;;1.80;;
61038;SDS011;46919;45.816;3.104;2022-11-12T12:28:09;5.05;;;1.88;;
61038;SDS011;46919;45.816;3.104;2022-11-12T12:30:57;9.77;;;1.92;;
61038;SDS011;46919;45.816;3.104;2022-11-12T12:36:02;7.95;;;2.75;;
61038;SDS011;46919;45.816;3.104;2022-11-12T12:38:50;5.07;;;1.77;;
61038;SDS011;46919;45.816;3.104;2022-11-12T12:46:27;4.88;;;1.88;;
61038;SDS011;46919;45.816;3.104;2022-11-12T12:48:56;3.97;;;1.73;;
61038;SDS011;46919;45.816;3.104;2022-11-12T12:51:24;2.97;;;1.65;;
61038;SDS011;46919;45.816;3.104;2022-11-12T12:53:54;6.30;;;1.90;;
61038;SDS011;46919;45.816;3.104;2022-11-12T12:58:47;4.35;;;1.60;;
61038;SDS011;46919;45.816;3.104;2022-11-12T13:03:50;6.45;;;1.90;;
61038;SDS011;46919;45.816;3.104;2022-11-12T13:09:32;4.38;;;1.30;;
61038;SDS011;46919;45.816;3.104;2022-11-12T13:19:28;4.20;;;1.90;;
61038;SDS011;46919;45.816;3.104;2022-11-12T13:32:54;3.83;;;1.50;;
61038;SDS011;46919;45.816;3.104;2022-11-12T13:40:37;8.82;;;4.90;;
61038;SDS011;46919;45.816;3.104;2022-11-12T13:53:58;4.20;;;2.55;;
61038;SDS011;46919;45.816;3.104;2022-11-12T13:58:52;4.55;;;2.20;;
61038;SDS011;46919;45.816;3.104;2022-11-12T14:01:18;6.35;;;2.50;;
61038;SDS011;46919;45.816;3.104;2022-11-12T14:03:47;3.72;;;2.00;;
61038;SDS011;46919;45.816;3.104;2022-11-12T14:06:30;4.93;;;1.98;;
61038;SDS011;46919;45.816;3.104;2022-11-12T14:25:22;5.30;;;2.45;;
61038;SDS011;46919;45.816;3.104;2022-11-12T14:27:49;13.40;;;3.28;;
61038;SDS011;46919;45.816;3.104;2022-11-12T14:30:17;4.82;;;2.63;;
61038;SDS011;46919;45.816;3.104;2022-11-12T14:32:44;8.13;;;2.85;;
61038;SDS011;46919;45.816;3.104;2022-11-12T14:35:30;5.72;;;2.67;;
61038;SDS011;46919;45.816;3.104;2022-11-12T14:40:41;5.38;;;2.83;;
61038;SDS011;46919;45.816;3.104;2022-11-12T14:43:16;8.43;;;2.50;;
61038;SDS011;46919;45.816;3.104;2022-11-12T14:45:46;4.63;;;2.30;;
61038;SDS011;46919;45.816;3.104;2022-11-12T14:48:13;7.72;;;2.65;;
61038;SDS011;46919;45.816;3.104;2022-11-12T14:50:38;7.35;;;2.65;;
61038;SDS011;46919;45.816;3.104;2022-11-12T14:53:10;7.43;;;3.22;;
61038;SDS011;46919;45.816;3.104;2022-11-12T14:55:40;9.05;;;2.75;;
61038;SDS011;46919;45.816;3.104;2022-11-12T14:58:13;4.20;;;2.78;;
61038;SDS011;46919;45.816;3.104;2022-11-12T15:00:43;5.13;;;2.90;;
61038;SDS011;46919;45.816;3.104;2022-11-12T15:03:12;3.88;;;2.78;;
61038;SDS011;46919;45.816;3.104;2022-11-12T15:05:55;7.65;;;2.90;;
61038;SDS011;46919;45.816;3.104;2022-11-12T15:08:34;7.13;;;3.97;;
61038;SDS011;46919;45.816;3.104;2022-11-12T15:11:16;6.67;;;4.23;;
61038;SDS011;46919;45.816;3.104;2022-11-12T15:13:45;7.72;;;3.88;;
61038;SDS011;46919;45.816;3.104;2022-11-12T15:16:23;6.43;;;3.13;;
61038;SDS011;46919;45.816;3.104;2022-11-12T15:21:48;3.10;;;2.28;;
61038;SDS011;46919;45.816;3.104;2022-11-12T15:24:17;3.45;;;2.38;;
61038;SDS011;46919;45.816;3.104;2022-11-12T15:26:49;4.63;;;2.75;;
61038;SDS011;46919;45.816;3.104;2022-11-12T15:29:24;4.35;;;2.03;;
61038;SDS011;46919;45.816;3.104;2022-11-12T15:34:30;4.18;;;2.60;;
61038;SDS011;46919;45.816;3.104;2022-11-12T15:37:03;6.13;;;2.55;;
61038;SDS011;46919;45.816;3.104;2022-11-12T15:39:50;8.48;;;2.80;;
61038;SDS011;46919;45.816;3.104;2022-11-12T15:42:38;10.68;;;2.75;;
61038;SDS011;46919;45.816;3.104;2022-11-12T15:45:12;5.65;;;2.83;;
61038;SDS011;46919;45.816;3.104;2022-11-12T15:47:43;8.27;;;2.60;;
61038;SDS011;46919;45.816;3.104;2022-11-12T15:52:37;7.88;;;2.90;;
61038;SDS011;46919;45.816;3.104;2022-11-12T15:55:02;4.00;;;2.75;;
61038;SDS011;46919;45.816;3.104;2022-11-12T15:57:28;7.05;;;3.17;;
61038;SDS011;46919;45.816;3.104;2022-11-12T16:00:00;6.13;;;3.33;;
61038;SDS011;46919;45.816;3.104;2022-11-12T16:02:29;11.73;;;4.57;;
61038;SDS011;46919;45.816;3.104;2022-11-12T16:04:54;8.32;;;4.57;;
61038;SDS011;46919;45.816;3.104;2022-11-12T16:07:20;7.13;;;4.35;;
61038;SDS011;46919;45.816;3.104;2022-11-12T16:09:45;11.40;;;4.47;;
61038;SDS011;46919;45.816;3.104;2022-11-12T16:12:11;12.15;;;5.10;;
61038;SDS011;46919;45.816;3.104;2022-11-12T16:14:38;22.38;;;16.73;;
61038;SDS011;46919;45.816;3.104;2022-11-12T16:17:05;14.88;;;9.52;;
61038;SDS011;46919;45.816;3.104;2022-11-12T16:19:35;13.25;;;6.90;;
61038;SDS011;46919;45.816;3.104;2022-11-12T16:22:01;12.02;;;6.43;;
61038;SDS011;46919;45.816;3.104;2022-11-12T16:24:26;21.20;;;15.65;;
61038;SDS011;46919;45.816;3.104;2022-11-12T16:26:52;20.60;;;15.20;;
61038;SDS011;46919;45.816;3.104;2022-11-12T16:29:17;16.50;;;10.80;;
61038;SDS011;46919;45.816;3.104;2022-11-12T16:31:43;10.43;;;7.90;;
61038;SDS011;46919;45.816;3.104;2022-11-12T16:34:09;14.32;;;6.20;;
61038;SDS011;46919;45.816;3.104;2022-11-12T16:36:35;9.27;;;5.68;;
61038;SDS011;46919;45.816;3.104;2022-11-12T16:39:02;9.88;;;7.40;;
61038;SDS011;46919;45.816;3.104;2022-11-12T16:41:27;11.13;;;8.30;;
61038;SDS011;46919;45.816;3.104;2022-11-12T16:43:53;13.23;;;9.02;;
61038;SDS011;46919;45.816;3.104;2022-11-12T16:46:20;9.35;;;7.00;;
61038;SDS011;46919;45.816;3.104;2022-11-12T16:48:50;7.78;;;5.18;;
61038;SDS011;46919;45.816;3.104;2022-11-12T16:51:16;8.45;;;6.63;;
61038;SDS011;46919;45.816;3.104;2022-11-12T16:53:43;16.20;;;11.15;;
61038;SDS011;46919;45.816;3.104;2022-11-12T16:56:12;9.10;;;7.18;;
61038;SDS011;46919;45.816;3.104;2022-11-12T16:58:40;11.67;;;8.37;;
61038;SDS011;46919;45.816;3.104;2022-11-12T17:01:06;12.82;;;7.47;;
61038;SDS011;46919;45.816;3.104;2022-11-12T17:03:36;10.48;;;7.43;;
61038;SDS011;46919;45.816;3.104;2022-11-12T17:06:01;11.80;;;7.18;;
61038;SDS011;46919;45.816;3.104;2022-11-12T17:08:27;10.95;;;7.50;;
61038;SDS011;46919;45.816;3.104;2022-11-12T17:10:54;13.60;;;9.60;;
61038;SDS011;46919;45.816;3.104;2022-11-12T17:13:20;12.55;;;7.85;;
61038;SDS011;46919;45.816;3.104;2022-11-12T17:15:45;9.77;;;5.90;;
61038;SDS011;46919;45.816;3.104;2022-11-12T17:18:11;9.80;;;3.53;;
61038;SDS011;46919;45.816;3.104;2022-11-12T17:20:36;10.82;;;8.70;;